Check out our new PWSWeather beta!
PWSweather.com
Personal Weather Stations
Station Observations
FWDETS1
Old French Road, Honeoye Falls, NY 14472

Old French RoadHoneoye Falls, NY 14472

Lat: 42.98, Lon: -77.614

Elevation: 660

Station Type: 1 Wire MetarLogic

Latest ConditionsUpdated 7:29:45 AM EST Thursday, Feb 27, 2020
Currently Today's Max Today's Min Today's Average
Temperature 24.1°F-4.4°C 36.2°F2.3°C 24.1°F-4.4°C 30.9°F-0.6°C
Dew Point 22.1°F-5.5°C 35.6°F2.0°C 22.1°F-5.5°C 29.6°F-1.3°C
Winds - N N - - - - -
Wind Gusts -- -- - -
Humidity 92% 98% 92% 95%
Pressure 29.49 in998.6 mb 29.49 in998.6 mb 29.41 in995.9 mb -
Precipitation - 0.03 in0.8 mm - -
Hour Temp Dew Point Humidity Winds Wind Gusts Pressure Precip Precip Rate Daily Precip Total
07:29 AM 24.1°F-4.4°C 22.1°F-5.5°C 92% - N N -- 29.49 in998.6 mb 0.00 in0.0 mm 0.00 in0.0 mm 0.03 in0.8 mm
07:24 AM 24.2°F-4.3°C 22.1°F-5.5°C 92% - N N -- 29.49 in998.6 mb 0.00 in0.0 mm 0.00 in0.0 mm 0.03 in0.8 mm
07:18 AM 24.5°F-4.2°C 22.6°F-5.2°C 92% - N N -- 29.48 in998.3 mb 0.00 in0.0 mm 0.00 in0.0 mm 0.03 in0.8 mm
07:12 AM 25.0°F-3.9°C 23.3°F-4.8°C 93% - N N -- 29.48 in998.3 mb 0.00 in0.0 mm 0.00 in0.0 mm 0.03 in0.8 mm
07:06 AM 25.0°F-3.9°C 23.2°F-4.9°C 93% - N N -- 29.48 in998.3 mb 0.00 in0.0 mm 0.00 in0.0 mm 0.03 in0.8 mm
07:01 AM 25.3°F-3.7°C 23.3°F-4.8°C 92% - N N -- 29.48 in998.3 mb 0.00 in0.0 mm 0.00 in0.0 mm 0.03 in0.8 mm
06:55 AM 25.4°F-3.7°C 23.5°F-4.7°C 92% - N N -- 29.47 in998.0 mb 0.00 in0.0 mm 0.00 in0.0 mm 0.03 in0.8 mm
06:49 AM 25.4°F-3.7°C 23.6°F-4.7°C 92% - N N -- 29.47 in998.0 mb 0.00 in0.0 mm 0.00 in0.0 mm 0.03 in0.8 mm
06:43 AM 25.7°F-3.5°C 23.8°F-4.6°C 92% - N N -- 29.46 in997.6 mb 0.00 in0.0 mm 0.00 in0.0 mm 0.03 in0.8 mm
06:37 AM 25.9°F-3.4°C 24.1°F-4.4°C 93% - N N -- 29.46 in997.6 mb 0.00 in0.0 mm 0.00 in0.0 mm 0.03 in0.8 mm
06:31 AM 26.2°F-3.2°C 24.5°F-4.2°C 93% - N N -- 29.46 in997.6 mb 0.00 in0.0 mm 0.00 in0.0 mm 0.03 in0.8 mm
06:25 AM 26.1°F-3.3°C 24.2°F-4.3°C 93% - N N -- 29.46 in997.6 mb 0.00 in0.0 mm 0.00 in0.0 mm 0.03 in0.8 mm
06:20 AM 26.3°F-3.2°C 24.3°F-4.3°C 92% - N N -- 29.46 in997.6 mb 0.00 in0.0 mm 0.00 in0.0 mm 0.03 in0.8 mm
06:14 AM 26.6°F-3.0°C 24.9°F-3.9°C 93% - N N -- 29.46 in997.6 mb 0.00 in0.0 mm 0.00 in0.0 mm 0.03 in0.8 mm
06:09 AM 27.1°F-2.7°C 25.5°F-3.6°C 94% - N N -- 29.45 in997.3 mb 0.00 in0.0 mm 0.00 in0.0 mm 0.03 in0.8 mm
06:04 AM 27.4°F-2.6°C 25.8°F-3.4°C 94% - N N -- 29.45 in997.3 mb 0.00 in0.0 mm 0.00 in0.0 mm 0.03 in0.8 mm
05:58 AM 27.6°F-2.4°C 26.0°F-3.3°C 94% - N N -- 29.45 in997.3 mb 0.00 in0.0 mm 0.00 in0.0 mm 0.03 in0.8 mm
05:52 AM 27.7°F-2.4°C 26.2°F-3.2°C 94% - N N -- 29.45 in997.3 mb 0.00 in0.0 mm 0.00 in0.0 mm 0.03 in0.8 mm
05:47 AM 27.9°F-2.3°C 26.4°F-3.1°C 94% - N N -- 29.45 in997.3 mb 0.00 in0.0 mm 0.00 in0.0 mm 0.03 in0.8 mm
05:41 AM 27.9°F-2.3°C 26.4°F-3.1°C 94% - N N -- 29.45 in997.3 mb 0.00 in0.0 mm 0.00 in0.0 mm 0.03 in0.8 mm
05:35 AM 28.1°F-2.2°C 26.8°F-2.9°C 95% - N N -- 29.45 in997.3 mb 0.00 in0.0 mm 0.00 in0.0 mm 0.03 in0.8 mm
05:30 AM 28.2°F-2.1°C 26.8°F-2.9°C 95% - N N -- 29.45 in997.3 mb 0.00 in0.0 mm 0.00 in0.0 mm 0.03 in0.8 mm
05:24 AM 28.2°F-2.1°C 26.8°F-2.9°C 95% - N N -- 29.45 in997.3 mb 0.00 in0.0 mm 0.00 in0.0 mm 0.03 in0.8 mm
05:18 AM 28.3°F-2.1°C 27.0°F-2.8°C 95% - N N -- 29.45 in997.3 mb 0.00 in0.0 mm 0.00 in0.0 mm 0.03 in0.8 mm
05:13 AM 28.4°F-2.0°C 26.9°F-2.8°C 94% - N N -- 29.44 in997.0 mb 0.00 in0.0 mm 0.00 in0.0 mm 0.03 in0.8 mm
05:07 AM 28.8°F-1.8°C 27.3°F-2.6°C 94% - N N -- 29.44 in997.0 mb 0.00 in0.0 mm 0.00 in0.0 mm 0.03 in0.8 mm
05:01 AM 29.2°F-1.6°C 27.9°F-2.3°C 95% - N N -- 29.44 in997.0 mb 0.00 in0.0 mm 0.00 in0.0 mm 0.03 in0.8 mm
04:55 AM 29.3°F-1.5°C 28.2°F-2.1°C 95% - N N -- 29.44 in997.0 mb 0.00 in0.0 mm 0.00 in0.0 mm 0.03 in0.8 mm
04:49 AM 29.4°F-1.4°C 28.4°F-2.0°C 96% - N N -- 29.44 in997.0 mb 0.00 in0.0 mm 0.00 in0.0 mm 0.03 in0.8 mm
04:44 AM 29.3°F-1.5°C 28.1°F-2.2°C 95% - N N -- 29.44 in997.0 mb 0.00 in0.0 mm 0.00 in0.0 mm 0.03 in0.8 mm
04:38 AM 29.4°F-1.4°C 28.1°F-2.2°C 95% - N N -- 29.44 in997.0 mb 0.00 in0.0 mm 0.00 in0.0 mm 0.03 in0.8 mm
04:32 AM 29.5°F-1.4°C 28.1°F-2.2°C 95% - N N -- 29.44 in997.0 mb 0.00 in0.0 mm 0.00 in0.0 mm 0.03 in0.8 mm
04:26 AM 29.5°F-1.4°C 28.1°F-2.2°C 94% - N N -- 29.43 in996.6 mb 0.00 in0.0 mm 0.00 in0.0 mm 0.03 in0.8 mm
04:20 AM 29.9°F-1.2°C 28.4°F-2.0°C 94% - N N -- 29.42 in996.3 mb 0.00 in0.0 mm 0.00 in0.0 mm 0.03 in0.8 mm
04:14 AM 30.3°F-0.9°C 28.8°F-1.8°C 94% - N N -- 29.42 in996.3 mb 0.00 in0.0 mm 0.00 in0.0 mm 0.03 in0.8 mm
04:08 AM 30.5°F-0.8°C 28.9°F-1.7°C 94% - N N -- 29.41 in995.9 mb 0.00 in0.0 mm 0.00 in0.0 mm 0.03 in0.8 mm
04:02 AM 30.7°F-0.7°C 29.2°F-1.6°C 94% - N N -- 29.42 in996.3 mb 0.00 in0.0 mm 0.00 in0.0 mm 0.03 in0.8 mm
03:56 AM 31.2°F-0.4°C 29.9°F-1.2°C 95% - N N -- 29.42 in996.3 mb 0.00 in0.0 mm 0.00 in0.0 mm 0.03 in0.8 mm
03:50 AM 31.4°F-0.3°C 30.0°F-1.1°C 94% - N N -- 29.42 in996.3 mb 0.00 in0.0 mm 0.00 in0.0 mm 0.03 in0.8 mm
03:44 AM 31.7°F-0.2°C 30.4°F-0.9°C 95% - N N -- 29.42 in996.3 mb 0.00 in0.0 mm 0.00 in0.0 mm 0.03 in0.8 mm
03:38 AM 31.8°F-0.1°C 30.6°F-0.8°C 95% - N N -- 29.42 in996.3 mb 0.00 in0.0 mm 0.00 in0.0 mm 0.03 in0.8 mm
03:32 AM 31.8°F-0.1°C 30.5°F-0.8°C 95% - N N -- 29.42 in996.3 mb 0.00 in0.0 mm 0.00 in0.0 mm 0.03 in0.8 mm
03:26 AM 32.0°F0.0°C 30.6°F-0.8°C 95% - N N -- 29.42 in996.3 mb 0.00 in0.0 mm 0.00 in0.0 mm 0.03 in0.8 mm
03:20 AM 32.3°F0.2°C 30.7°F-0.7°C 94% - N N -- 29.42 in996.3 mb 0.00 in0.0 mm 0.00 in0.0 mm 0.03 in0.8 mm
03:14 AM 32.6°F0.3°C 31.4°F-0.3°C 95% - N N -- 29.42 in996.3 mb 0.00 in0.0 mm 0.00 in0.0 mm 0.03 in0.8 mm
03:08 AM 33.0°F0.6°C 32.1°F0.1°C 97% - N N -- 29.41 in995.9 mb 0.00 in0.0 mm 0.00 in0.0 mm 0.03 in0.8 mm
03:02 AM 33.0°F0.6°C 32.2°F0.1°C 97% - N N -- 29.41 in995.9 mb 0.00 in0.0 mm 0.00 in0.0 mm 0.03 in0.8 mm
02:56 AM 33.2°F0.7°C 32.4°F0.2°C 97% - N N -- 29.42 in996.3 mb 0.00 in0.0 mm 0.00 in0.0 mm 0.03 in0.8 mm
02:50 AM 33.4°F0.8°C 32.6°F0.3°C 97% - N N -- 29.42 in996.3 mb 0.00 in0.0 mm 0.00 in0.0 mm 0.03 in0.8 mm
02:44 AM 33.4°F0.8°C 32.6°F0.3°C 97% - N N -- 29.42 in996.3 mb 0.00 in0.0 mm 0.00 in0.0 mm 0.03 in0.8 mm
02:39 AM 33.4°F0.8°C 32.6°F0.3°C 97% - N N -- 29.42 in996.3 mb 0.00 in0.0 mm 0.00 in0.0 mm 0.03 in0.8 mm
02:33 AM 33.3°F0.7°C 32.5°F0.3°C 97% - N N -- 29.42 in996.3 mb 0.00 in0.0 mm 0.00 in0.0 mm 0.03 in0.8 mm
02:27 AM 33.4°F0.8°C 32.6°F0.3°C 97% - N N -- 29.41 in995.9 mb 0.01 in0.3 mm 0.00 in0.0 mm 0.03 in0.8 mm
02:21 AM 33.5°F0.8°C 32.7°F0.4°C 97% - N N -- 29.41 in995.9 mb 0.01 in0.3 mm 0.00 in0.0 mm 0.03 in0.8 mm
02:15 AM 33.6°F0.9°C 32.8°F0.4°C 97% - N N -- 29.41 in995.9 mb 0.01 in0.3 mm 0.00 in0.0 mm 0.03 in0.8 mm
02:09 AM 33.7°F0.9°C 32.9°F0.5°C 97% - N N -- 29.41 in995.9 mb 0.01 in0.3 mm 0.00 in0.0 mm 0.03 in0.8 mm
02:03 AM 33.9°F1.1°C 33.0°F0.6°C 96% - N N -- 29.42 in996.3 mb 0.01 in0.3 mm 0.00 in0.0 mm 0.03 in0.8 mm
01:57 AM 34.0°F1.1°C 33.2°F0.7°C 97% - N N -- 29.42 in996.3 mb 0.01 in0.3 mm 0.00 in0.0 mm 0.03 in0.8 mm
01:51 AM 34.1°F1.2°C 33.3°F0.7°C 97% - N N -- 29.43 in996.6 mb 0.01 in0.3 mm 0.00 in0.0 mm 0.03 in0.8 mm
01:45 AM 34.0°F1.1°C 33.3°F0.7°C 97% - N N -- 29.43 in996.6 mb 0.02 in0.5 mm 0.00 in0.0 mm 0.03 in0.8 mm
01:39 AM 34.1°F1.2°C 33.2°F0.7°C 97% - N N -- 29.42 in996.3 mb 0.02 in0.5 mm 0.00 in0.0 mm 0.03 in0.8 mm
01:33 AM 34.0°F1.1°C 33.2°F0.7°C 97% - N N -- 29.43 in996.6 mb 0.02 in0.5 mm 0.12 in3.0 mm 0.03 in0.8 mm
01:28 AM 34.2°F1.2°C 33.2°F0.7°C 96% - N N -- 29.41 in995.9 mb 0.01 in0.3 mm 0.00 in0.0 mm 0.02 in0.5 mm
01:22 AM 34.4°F1.3°C 33.4°F0.8°C 96% - N N -- 29.42 in996.3 mb 0.01 in0.3 mm 0.00 in0.0 mm 0.02 in0.5 mm
01:16 AM 34.5°F1.4°C 33.6°F0.9°C 96% - N N -- 29.43 in996.6 mb 0.01 in0.3 mm 0.00 in0.0 mm 0.02 in0.5 mm
01:10 AM 34.8°F1.6°C 33.9°F1.1°C 97% - N N -- 29.42 in996.3 mb 0.01 in0.3 mm 0.00 in0.0 mm 0.02 in0.5 mm
01:04 AM 34.9°F1.6°C 34.0°F1.1°C 97% - N N -- 29.43 in996.6 mb 0.01 in0.3 mm 0.00 in0.0 mm 0.02 in0.5 mm
12:58 AM 35.0°F1.7°C 34.2°F1.2°C 97% - N N -- 29.43 in996.6 mb 0.02 in0.5 mm 0.00 in0.0 mm 0.02 in0.5 mm
12:52 AM 35.1°F1.7°C 34.2°F1.2°C 97% - N N -- 29.44 in997.0 mb 0.02 in0.5 mm 0.12 in3.0 mm 0.02 in0.5 mm
12:47 AM 35.2°F1.8°C 34.3°F1.3°C 97% - N N -- 29.44 in997.0 mb 0.01 in0.3 mm 0.00 in0.0 mm 0.01 in0.3 mm
12:41 AM 35.3°F1.8°C 34.5°F1.4°C 97% - N N -- 29.44 in997.0 mb 0.01 in0.3 mm 0.00 in0.0 mm 0.01 in0.3 mm
12:36 AM 35.5°F1.9°C 34.6°F1.4°C 97% - N N -- 29.44 in997.0 mb 0.01 in0.3 mm 0.00 in0.0 mm 0.01 in0.3 mm
12:30 AM 35.6°F2.0°C 34.7°F1.5°C 97% - N N -- 29.44 in997.0 mb 0.02 in0.5 mm 0.00 in0.0 mm 0.01 in0.3 mm
12:24 AM 35.7°F2.1°C 35.0°F1.7°C 97% - N N -- 29.44 in997.0 mb 0.04 in1.0 mm 0.00 in0.0 mm 0.01 in0.3 mm
12:18 AM 36.0°F2.2°C 35.3°F1.8°C 97% - N N -- 29.45 in997.3 mb 0.06 in1.5 mm 0.00 in0.0 mm 0.01 in0.3 mm
12:13 AM 36.0°F2.2°C 35.1°F1.7°C 97% - N N -- 29.44 in997.0 mb 0.07 in1.8 mm 0.00 in0.0 mm 0.01 in0.3 mm
12:08 AM 36.2°F2.3°C 35.6°F2.0°C 98% - N N -- 29.44 in997.0 mb 0.07 in1.8 mm 0.00 in0.0 mm 0.01 in0.3 mm
12:02 AM 36.2°F2.3°C 35.5°F1.9°C 98% - N N -- 29.44 in997.0 mb 0.08 in2.0 mm 2.40 in61.0 mm 0.08 in2.0 mm